Maia — WDJ4195 — position and weather

sailwx.info

Track history (hours):
 
Tides and Currents Weather Stations Pressure Air Temp Water Temp Dewpoint Dewpoint Depression Visibility Wind Speed Wind Dir Waves Ship Positions

Maia

Owner: Palop, Rafael, DORAL, FL. More information available from US FCC via Universal Licensing System and Coast Guard Vessel Documentation Center.

Last reported at 2018-Apr-01 23:31 UTC. Time now 2018-Jun-20 09:14 UTC.
Position N 25°46' W 080°10'.
Warning: this ship's position is months out of date.

Length 17 m.

Type: Sailing vessel. MMSI: 338853000.

Date/timePositionNaut miles runAvg speedWind from/ knotsBaromVisibWave heightAir tempDewpointWater temp
2018-Apr-01 23:31N 25°46' W 080°10'0 7.6
2018-Apr-01 23:30N 25°46' W 080°10'4 8.1
2018-Apr-01 22:59N 25°45' W 080°05'22 0.5
2018-Mar-30 22:40N 25°46' W 079°40'1 6.3
2018-Mar-30 22:27N 25°46' W 079°42'1 2.4
2018-Mar-30 22:00N 25°46' W 079°43'2 3.5
2018-Mar-30 21:30N 25°46' W 079°45'2 3.3
2018-Mar-30 20:59N 25°45' W 079°47'2 4.1
2018-Mar-30 20:29N 25°45' W 079°49'3 6.4
2018-Mar-30 19:58N 25°45' W 079°53'3 6.3
2018-Mar-30 19:30N 25°45' W 079°56'3 6.0
2018-Mar-30 18:57N 25°45' W 079°59'3 6.9
2018-Mar-30 18:30N 25°45' W 080°03'4 7.2
2018-Mar-30 18:00N 25°46' W 080°07'4 7.5
2018-Mar-30 17:30N 25°46' W 080°11'2 3.1
2018-Mar-30 17:00N 25°47' W 080°13'0 0.8
2018-Mar-30 16:28N 25°47' W 080°13'0 0.1
2018-Mar-30 15:55N 25°47' W 080°13'0 0.0
2018-Mar-30 15:30N 25°47' W 080°13'0 0.0
2018-Mar-30 14:55N 25°47' W 080°13'0 0.3
2018-Mar-30 14:30N 25°47' W 080°13'  
Track history (hours):
 
Tides and Currents Weather Stations Pressure Air Temp Water Temp Dewpoint Dewpoint Depression Visibility Wind Speed Wind Dir Waves Ship Positions

Maia

Owner: Palop, Rafael, DORAL, FL. More information available from US FCC via Universal Licensing System and Coast Guard Vessel Documentation Center.

Last reported at 2018-Apr-01 23:31 UTC. Time now 2018-Jun-20 09:14 UTC.
Position N 25°46' W 080°10'.
Warning: this ship's position is months out of date.

Length 17 m.

Type: Sailing vessel. MMSI: 338853000.

Date/timePositionNaut miles runAvg speedWind from/ knotsBaromVisibWave heightAir tempDewpointWater temp
2018-Apr-01 23:31N 25°46' W 080°10'0 7.6
2018-Apr-01 23:30N 25°46' W 080°10'4 8.1
2018-Apr-01 22:59N 25°45' W 080°05'22 0.5
2018-Mar-30 22:40N 25°46' W 079°40'1 6.3
2018-Mar-30 22:27N 25°46' W 079°42'1 2.4
2018-Mar-30 22:00N 25°46' W 079°43'2 3.5
2018-Mar-30 21:30N 25°46' W 079°45'2 3.3
2018-Mar-30 20:59N 25°45' W 079°47'2 4.1
2018-Mar-30 20:29N 25°45' W 079°49'3 6.4
2018-Mar-30 19:58N 25°45' W 079°53'3 6.3
2018-Mar-30 19:30N 25°45' W 079°56'3 6.0
2018-Mar-30 18:57N 25°45' W 079°59'3 6.9
2018-Mar-30 18:30N 25°45' W 080°03'4 7.2
2018-Mar-30 18:00N 25°46' W 080°07'4 7.5
2018-Mar-30 17:30N 25°46' W 080°11'2 3.1
2018-Mar-30 17:00N 25°47' W 080°13'0 0.8
2018-Mar-30 16:28N 25°47' W 080°13'0 0.1
2018-Mar-30 15:55N 25°47' W 080°13'0 0.0
2018-Mar-30 15:30N 25°47' W 080°13'0 0.0
2018-Mar-30 14:55N 25°47' W 080°13'0 0.3
2018-Mar-30 14:30N 25°47' W 080°13'  

Dump ship's entire track history